Falcon — WBE7134 — position and weather

sailwx.info

Track history (hours):
 
Tides and Currents Weather Stations Pressure Air Temp Water Temp Dewpoint Dewpoint Depression Visibility Wind Speed Wind Dir Waves Ship Positions

Falcon

Owner: Allied Transportation Company, NORFOLK, VA. More information available from US FCC via Universal Licensing System and Coast Guard Vessel Documentation Center.

Last reported at 2016-Jun-26 20:05 UTC. Time now 2016-Jun-27 02:26 UTC.
Position N 40°47' W 073°59'.

Length 37 m; draft 6 m.

Type: Tug. MMSI: 366976720.

Date/timePositionNaut miles runAvg speedWind from/ knotsBaromVisibWave heightAir tempDewpointWater temp
2016-Jun-26 20:05N 40°47' W 073°59'611.2
2016-Jun-26 19:33N 40°42' W 074°02'8 8.3
2016-Jun-26 18:33N 40°38' W 074°12'0 0.0
2016-Jun-26 17:33N 40°38' W 074°12'0 0.0
2016-Jun-26 16:33N 40°38' W 074°12'0 0.0
2016-Jun-26 15:33N 40°38' W 074°12'0 0.0
2016-Jun-26 14:33N 40°38' W 074°12'0 0.0
2016-Jun-26 13:27N 40°38' W 074°12'0 0.0
2016-Jun-26 12:33N 40°38' W 074°12'4 3.7
2016-Jun-26 11:34N 40°39' W 074°07'1111.4
2016-Jun-26 10:33N 40°48' W 073°59'8 7.1
2016-Jun-26 09:25N 40°56' W 073°54'0 0.0
2016-Jun-26 08:25N 40°56' W 073°54'0 0.0
2016-Jun-26 07:31N 40°56' W 073°54'4 0.1
2016-Jun-24 17:05N 40°52' W 073°56'5 8.6
2016-Jun-24 16:33N 40°48' W 073°59'8 8.4
2016-Jun-24 15:34N 40°40' W 074°03'8 8.0
2016-Jun-24 14:33N 40°32' W 074°01'7 7.1
2016-Jun-24 13:33N 40°27' W 073°54'12 5.3
2016-Jun-24 11:12N 40°15' W 073°55'5 6.5
2016-Jun-24 10:29N 40°10' W 073°55'6 6.7
2016-Jun-24 09:33N 40°04' W 073°56'7 6.8
2016-Jun-24 08:33N 39°57' W 073°57'7 6.8
2016-Jun-24 07:33N 39°50' W 073°57'20 6.8
2016-Jun-24 04:33N 39°31' W 074°07'6 6.4
2016-Jun-24 03:33N 39°26' W 074°10'7 7.1
2016-Jun-24 02:32N 39°19' W 074°15'14 6.5
2016-Jun-24 00:22N 39°07' W 074°24'6 6.5
2016-Jun-23 23:23N 39°02' W 074°28'260 6.3
2016-Jun-22 06:27N 34°49' W 075°42'19 6.1
2016-Jun-22 03:25N 34°36' W 075°58'  
2016-Jun-18 02:06N 31°20' W 080°37'  
Track history (hours):
 
Tides and Currents Weather Stations Pressure Air Temp Water Temp Dewpoint Dewpoint Depression Visibility Wind Speed Wind Dir Waves Ship Positions

Falcon

Owner: Allied Transportation Company, NORFOLK, VA. More information available from US FCC via Universal Licensing System and Coast Guard Vessel Documentation Center.

Last reported at 2016-Jun-26 20:05 UTC. Time now 2016-Jun-27 02:26 UTC.
Position N 40°47' W 073°59'.

Length 37 m; draft 6 m.

Type: Tug. MMSI: 366976720.

Date/timePositionNaut miles runAvg speedWind from/ knotsBaromVisibWave heightAir tempDewpointWater temp
2016-Jun-26 20:05N 40°47' W 073°59'611.2
2016-Jun-26 19:33N 40°42' W 074°02'8 8.3
2016-Jun-26 18:33N 40°38' W 074°12'0 0.0
2016-Jun-26 17:33N 40°38' W 074°12'0 0.0
2016-Jun-26 16:33N 40°38' W 074°12'0 0.0
2016-Jun-26 15:33N 40°38' W 074°12'0 0.0
2016-Jun-26 14:33N 40°38' W 074°12'0 0.0
2016-Jun-26 13:27N 40°38' W 074°12'0 0.0
2016-Jun-26 12:33N 40°38' W 074°12'4 3.7
2016-Jun-26 11:34N 40°39' W 074°07'1111.4
2016-Jun-26 10:33N 40°48' W 073°59'8 7.1
2016-Jun-26 09:25N 40°56' W 073°54'0 0.0
2016-Jun-26 08:25N 40°56' W 073°54'0 0.0
2016-Jun-26 07:31N 40°56' W 073°54'4 0.1
2016-Jun-24 17:05N 40°52' W 073°56'5 8.6
2016-Jun-24 16:33N 40°48' W 073°59'8 8.4
2016-Jun-24 15:34N 40°40' W 074°03'8 8.0
2016-Jun-24 14:33N 40°32' W 074°01'7 7.1
2016-Jun-24 13:33N 40°27' W 073°54'12 5.3
2016-Jun-24 11:12N 40°15' W 073°55'5 6.5
2016-Jun-24 10:29N 40°10' W 073°55'6 6.7
2016-Jun-24 09:33N 40°04' W 073°56'7 6.8
2016-Jun-24 08:33N 39°57' W 073°57'7 6.8
2016-Jun-24 07:33N 39°50' W 073°57'20 6.8
2016-Jun-24 04:33N 39°31' W 074°07'6 6.4
2016-Jun-24 03:33N 39°26' W 074°10'7 7.1
2016-Jun-24 02:32N 39°19' W 074°15'14 6.5
2016-Jun-24 00:22N 39°07' W 074°24'6 6.5
2016-Jun-23 23:23N 39°02' W 074°28'260 6.3
2016-Jun-22 06:27N 34°49' W 075°42'19 6.1
2016-Jun-22 03:25N 34°36' W 075°58'  
2016-Jun-18 02:06N 31°20' W 080°37'  

Dump ship's entire track history